Time;durP1;ratioP1;P1;durP2;ratioP2;P2;SDS_P1;SDS_P2;PMS_P1;PMS_P2;Temp;Humidity;BMP_temperature;BMP_pressure;BME280_temperature;BME280_humidity;BME280_pressure;Samples;Min_cycle;Max_cycle;Signal;HPM_P1;HPM_P2
2021/07/15 00:01:17;;;;;;;4.23;1.87;;;;;;;18.84;64.90;97476.84;8416058;28;20203;-68
2021/07/15 00:05:21;;;;;;;7.57;2.23;;;;;;;18.85;65.13;97475.06;8416360;28;20231;-68
2021/07/15 00:09:23;;;;;;;2.70;2.37;;;;;;;18.82;64.88;97480.56;8416682;28;20202;-68
2021/07/15 00:13:26;;;;;;;4.80;2.00;;;;;;;18.79;65.22;97483.41;8416326;28;20210;-67
2021/07/15 00:17:31;;;;;;;4.53;2.10;;;;;;;18.81;64.95;97486.78;8415917;28;20230;-68
2021/07/15 00:21:34;;;;;;;6.03;2.27;;;;;;;18.80;65.08;97490.34;8415932;28;20203;-67
2021/07/15 00:25:37;;;;;;;2.93;2.10;;;;;;;18.72;65.07;97496.25;8415781;28;20227;-67
2021/07/15 00:29:40;;;;;;;4.17;1.77;;;;;;;18.74;64.43;97496.94;8415802;28;20239;-68
2021/07/15 00:33:45;;;;;;;5.07;2.00;;;;;;;18.67;64.67;97496.63;8415830;28;20198;-68
2021/07/15 00:37:48;;;;;;;6.47;2.40;;;;;;;18.61;64.96;97499.75;8415657;28;20202;-68
2021/07/15 00:41:51;;;;;;;9.03;2.20;;;;;;;18.68;64.32;97500.91;8415433;28;20259;-68
2021/07/15 00:45:54;;;;;;;4.10;2.20;;;;;;;18.62;65.24;97485.72;8415236;28;20246;-68
2021/07/15 00:49:59;;;;;;;5.73;2.13;;;;;;;18.61;64.91;97484.03;8415233;28;20199;-68
2021/07/15 00:54:01;;;;;;;4.37;2.03;;;;;;;18.62;65.24;97490.94;8414972;28;20204;-68
2021/07/15 00:58:05;;;;;;;6.23;2.13;;;;;;;18.62;65.05;97493.56;8414265;28;20203;-68
2021/07/15 01:02:08;;;;;;;6.53;2.00;;;;;;;18.64;64.86;97491.66;8414493;28;20210;-68
2021/07/15 01:06:12;;;;;;;3.40;2.20;;;;;;;18.59;64.76;97501.69;8414021;28;20278;-67
2021/07/15 01:10:18;;;;;;;6.37;2.30;;;;;;;18.66;65.32;97507.25;8413035;28;20206;-67
2021/07/15 01:14:25;;;;;;;3.80;2.37;;;;;;;18.60;65.52;97503.38;8414030;28;20203;-67
2021/07/15 01:18:35;;;;;;;4.97;2.50;;;;;;;18.39;65.61;97500.75;8413809;28;20232;-68
2021/07/15 01:22:41;;;;;;;3.23;2.23;;;;;;;18.43;65.96;97493.44;8413713;28;20211;-68
2021/07/15 01:27:08;;;;;;;3.57;2.40;;;;;;;18.32;66.05;97496.97;8413691;28;20227;-68
2021/07/15 01:31:13;;;;;;;6.20;2.50;;;;;;;18.46;65.85;97508.94;8413922;28;20227;-67
2021/07/15 01:35:19;;;;;;;5.87;2.40;;;;;;;18.51;65.48;97504.97;8413402;28;20499;-68
2021/07/15 01:39:23;;;;;;;4.97;2.80;;;;;;;18.32;65.91;97496.97;8413030;28;20199;-68
2021/07/15 01:43:28;;;;;;;7.37;2.83;;;;;;;18.43;65.55;97491.66;8412840;28;20199;-68
2021/07/15 01:47:33;;;;;;;3.97;2.60;;;;;;;18.48;65.17;97499.97;8413128;28;20279;-68
2021/07/15 01:51:36;;;;;;;3.40;2.40;;;;;;;18.50;65.48;97498.03;8412897;28;20214;-68
2021/07/15 01:55:40;;;;;;;6.30;2.23;;;;;;;18.49;65.43;97503.44;8412545;28;20490;-68
2021/07/15 01:59:44;;;;;;;5.33;2.10;;;;;;;18.45;64.89;97507.25;8412286;28;20203;-67
2021/07/15 02:03:49;;;;;;;4.20;1.80;;;;;;;18.32;65.34;97516.16;8412645;28;20199;-68
2021/07/15 02:07:52;;;;;;;5.10;2.10;;;;;;;18.37;65.29;97510.50;8412305;28;20226;-67
2021/07/15 02:11:56;;;;;;;5.13;2.23;;;;;;;18.41;65.63;97517.19;8412142;28;20486;-67
2021/07/15 02:16:00;;;;;;;6.70;2.40;;;;;;;18.47;65.86;97516.66;8412300;28;20207;-68
2021/07/15 02:20:06;;;;;;;4.13;2.40;;;;;;;18.44;65.88;97514.28;8412120;28;20275;-68
2021/07/15 02:24:10;;;;;;;8.93;2.50;;;;;;;18.41;65.60;97517.19;8417608;28;20387;-68
2021/07/15 02:28:13;;;;;;;4.90;2.30;;;;;;;18.45;65.68;97522.97;8418663;28;20483;-68
2021/07/15 02:32:16;;;;;;;8.73;2.20;;;;;;;18.39;65.74;97531.38;8417534;28;20209;-68
2021/07/15 02:36:21;;;;;;;9.53;2.70;;;;;;;18.38;65.76;97535.78;8418371;28;20198;-68
2021/07/15 02:40:24;;;;;;;5.40;2.43;;;;;;;18.39;65.84;97533.97;8418382;28;20201;-67
2021/07/15 02:44:28;;;;;;;3.63;2.80;;;;;;;18.41;66.58;97546.03;8417970;28;20264;-68
2021/07/15 02:48:32;;;;;;;5.13;2.70;;;;;;;18.46;66.29;97549.06;8418073;28;20206;-68
2021/07/15 02:52:36;;;;;;;6.27;2.43;;;;;;;18.47;66.05;97549.94;8417835;28;20199;-68
2021/07/15 02:56:45;;;;;;;4.87;2.83;;;;;;;18.38;66.07;97550.69;8417432;28;20203;-68
2021/07/15 03:00:52;;;;;;;7.93;3.07;;;;;;;18.21;67.21;97555.50;8418028;28;20200;-68
2021/07/15 03:05:01;;;;;;;6.63;2.67;;;;;;;18.28;66.75;97551.44;8417284;28;20287;-68
2021/07/15 03:09:11;;;;;;;9.67;3.07;;;;;;;18.11;67.53;97549.38;8417639;28;20199;-68
2021/07/15 03:13:14;;;;;;;9.40;2.93;;;;;;;18.14;67.61;97541.25;8417638;28;20205;-68
2021/07/15 03:17:24;;;;;;;6.20;3.20;;;;;;;18.06;67.43;97539.25;8417535;28;20225;-68
2021/07/15 03:21:28;;;;;;;7.47;3.27;;;;;;;18.03;67.94;97552.63;8417258;28;20234;-68
2021/07/15 03:25:32;;;;;;;6.20;3.30;;;;;;;18.12;67.90;97537.91;8417468;28;20309;-68
2021/07/15 03:29:36;;;;;;;6.23;3.43;;;;;;;18.31;67.01;97532.81;8408283;28;20235;-68
2021/07/15 03:33:40;;;;;;;4.43;2.80;;;;;;;18.30;66.99;97525.09;8382645;28;20199;-68
2021/07/15 03:38:10;;;;;;;7.87;3.60;;;;;;;18.12;67.15;97527.44;8475899;27;20520;-67
2021/07/15 03:42:13;;;;;;;5.30;3.10;;;;;;;18.10;67.58;97529.34;8442782;28;20199;-66
2021/07/15 03:46:16;;;;;;;7.47;3.33;;;;;;;17.79;68.28;97534.44;8442846;28;20209;-67
2021/07/15 03:50:21;;;;;;;7.40;3.77;;;;;;;17.79;68.51;97527.41;8441959;28;20199;-67
2021/07/15 03:54:25;;;;;;;7.90;4.30;;;;;;;17.23;71.41;97529.31;8441591;28;20559;-67
2021/07/15 03:58:29;;;;;;;8.37;3.90;;;;;;;17.85;68.52;97526.13;8441151;28;20194;-69
2021/07/15 04:02:32;;;;;;;5.47;3.50;;;;;;;17.69;69.40;97525.69;8440958;28;20384;-66
2021/07/15 04:06:36;;;;;;;7.23;3.60;;;;;;;17.81;69.03;97518.63;8426984;28;20411;-66
2021/07/15 04:10:42;;;;;;;8.23;3.57;;;;;;;17.50;69.95;97505.38;8407779;28;20206;-66
2021/07/15 04:15:05;;;;;;;9.87;3.90;;;;;;;17.72;69.21;97507.91;8407446;28;20234;-66
2021/07/15 04:19:09;;;;;;;9.07;4.27;;;;;;;17.73;68.75;97504.34;8407501;28;20199;-66
2021/07/15 04:23:12;;;;;;;6.60;3.87;;;;;;;17.81;68.57;97508.97;8407267;28;20351;-66
2021/07/15 04:27:17;;;;;;;11.37;5.27;;;;;;;17.95;68.44;97510.47;8407030;28;20203;-66
2021/07/15 04:31:30;;;;;;;7.37;3.53;;;;;;;17.95;68.22;97500.84;8407145;28;20195;-66
2021/07/15 04:35:34;;;;;;;5.37;3.70;;;;;;;18.06;67.76;97499.97;8407210;28;20238;-66
2021/07/15 04:39:38;;;;;;;10.03;4.17;;;;;;;17.85;68.70;97502.53;8406206;28;20199;-66
2021/07/15 04:43:42;;;;;;;7.83;3.47;;;;;;;18.22;67.35;97510.03;8405992;28;20199;-66
2021/07/15 04:47:46;;;;;;;7.50;3.37;;;;;;;18.11;68.03;97505.66;8392759;28;20365;-66
2021/07/15 04:51:49;;;;;;;3.87;3.43;;;;;;;18.25;67.22;97506.31;8384108;28;20234;-66
2021/07/15 04:55:54;;;;;;;7.17;3.13;;;;;;;18.24;66.91;97505.47;8383304;28;20236;-66
2021/07/15 05:00:00;;;;;;;5.03;3.07;;;;;;;18.25;66.93;97501.06;8384052;28;20267;-67
2021/07/15 05:04:03;;;;;;;4.67;3.03;;;;;;;18.34;66.70;97505.53;8399528;28;20381;-66
2021/07/15 05:08:06;;;;;;;5.87;3.30;;;;;;;18.00;68.44;97508.31;8399891;28;20402;-66
2021/07/15 05:12:10;;;;;;;4.60;3.23;;;;;;;17.92;68.32;97510.75;8395791;28;20195;-65
2021/07/15 05:16:14;;;;;;;6.90;3.33;;;;;;;17.84;68.63;97506.13;8386864;28;20239;-66
2021/07/15 05:20:17;;;;;;;4.57;2.63;;;;;;;18.02;68.40;97516.06;8383884;28;20379;-67
2021/07/15 05:24:20;;;;;;;3.57;2.90;;;;;;;18.05;68.06;97511.41;8393740;28;20206;-74
2021/07/15 05:28:23;;;;;;;10.80;2.80;;;;;;;18.12;67.71;97515.16;8382389;28;20198;-67
2021/07/15 05:32:29;;;;;;;9.57;3.23;;;;;;;18.09;67.97;97517.22;8385682;28;20200;-67
2021/07/15 05:36:31;;;;;;;5.30;3.03;;;;;;;18.16;68.14;97515.75;8382164;28;20243;-67
2021/07/15 05:40:34;;;;;;;6.37;3.60;;;;;;;18.01;67.85;97510.00;8383583;28;20203;-66
2021/07/15 05:44:37;;;;;;;6.30;3.40;;;;;;;17.83;68.56;97525.38;8382898;28;20271;-66
2021/07/15 05:48:41;;;;;;;4.20;3.00;;;;;;;18.18;67.86;97521.69;8383478;28;20222;-66
2021/07/15 05:52:44;;;;;;;4.13;2.90;;;;;;;18.31;67.15;97521.50;8383419;28;20204;-67
2021/07/15 05:56:47;;;;;;;6.30;2.93;;;;;;;18.17;67.42;97522.66;8383075;28;20228;-67
2021/07/15 06:00:49;;;;;;;4.20;2.77;;;;;;;18.28;67.15;97520.00;8381824;28;20215;-67
2021/07/15 06:04:54;;;;;;;4.80;2.70;;;;;;;18.50;65.93;97531.31;8382813;28;20506;-66
2021/07/15 06:08:56;;;;;;;5.13;2.97;;;;;;;18.69;65.52;97546.31;8382489;28;20207;-67
2021/07/15 06:13:00;;;;;;;4.43;2.50;;;;;;;18.81;65.01;97554.97;8382513;28;20210;-66
2021/07/15 06:17:03;;;;;;;3.97;2.20;;;;;;;18.85;64.96;97544.09;8382660;28;20519;-67
2021/07/15 06:21:08;;;;;;;3.27;1.80;;;;;;;18.97;64.07;97559.78;8382412;28;20204;-66
2021/07/15 06:25:12;;;;;;;4.20;1.90;;;;;;;18.82;64.88;97562.72;8382078;28;20207;-66
2021/07/15 06:29:14;;;;;;;2.60;1.60;;;;;;;18.84;64.18;97559.97;8382150;28;20199;-67
2021/07/15 06:33:17;;;;;;;3.37;1.40;;;;;;;18.94;64.50;97566.94;8382338;28;20403;-65
2021/07/15 06:37:27;;;;;;;3.20;1.50;;;;;;;19.14;63.87;97548.66;8381936;28;20242;-65
2021/07/15 06:41:30;;;;;;;1.90;1.10;;;;;;;19.51;63.41;97551.56;8382468;28;20208;-66
2021/07/15 06:45:33;;;;;;;3.03;1.70;;;;;;;19.50;62.55;97552.50;8382261;28;20222;-66
2021/07/15 06:49:36;;;;;;;3.37;1.23;;;;;;;19.58;62.53;97554.47;8382140;28;20199;-65
2021/07/15 06:53:40;;;;;;;5.30;1.50;;;;;;;19.52;61.35;97555.00;8382033;28;20487;-65
2021/07/15 06:57:44;;;;;;;1.77;1.30;;;;;;;19.41;62.15;97558.56;8372081;28;20223;-65
2021/07/15 07:01:47;;;;;;;3.80;1.40;;;;;;;19.20;62.33;97569.13;8347550;28;20227;-65
2021/07/15 07:05:50;;;;;;;1.83;1.27;;;;;;;19.49;62.00;97574.47;8357917;28;20216;-66
2021/07/15 07:09:54;;;;;;;1.20;1.07;;;;;;;19.47;62.39;97575.56;8360824;28;20199;-65
2021/07/15 07:13:57;;;;;;;1.13;1.00;;;;;;;19.68;61.56;97578.13;8363304;28;20197;-65
2021/07/15 07:18:00;;;;;;;2.17;1.23;;;;;;;19.90;60.77;97572.66;8364612;28;20223;-65
2021/07/15 07:22:03;;;;;;;3.53;1.30;;;;;;;19.52;61.33;97570.75;8360384;28;20311;-65
2021/07/15 07:26:08;;;;;;;5.60;1.53;;;;;;;19.63;60.85;97565.41;8363591;28;20207;-65
2021/07/15 07:30:12;;;;;;;6.07;1.33;;;;;;;18.94;63.30;97564.31;8363369;28;20204;-65
2021/07/15 07:34:15;;;;;;;1.27;1.13;;;;;;;19.46;62.26;97564.25;8362908;28;20498;-66
2021/07/15 07:38:18;;;;;;;3.33;1.30;;;;;;;19.59;61.72;97565.78;8359737;28;20243;-66
2021/07/15 07:42:22;;;;;;;4.80;1.13;;;;;;;20.00;60.91;97572.69;8364911;28;20219;-66
2021/07/15 07:46:25;;;;;;;3.37;1.23;;;;;;;20.19;60.45;97566.59;8380053;28;20209;-66
2021/07/15 07:50:28;;;;;;;3.40;1.17;;;;;;;20.63;58.20;97568.81;8380111;28;20211;-68
2021/07/15 07:54:31;;;;;;;3.63;0.80;;;;;;;21.02;55.55;97574.00;8380058;28;20200;-68
2021/07/15 07:58:36;;;;;;;1.77;0.73;;;;;;;21.16;55.17;97576.16;8362291;28;20224;-69
2021/07/15 08:02:40;;;;;;;0.47;0.47;;;;;;;20.96;56.13;97570.16;8347054;28;20207;-68
2021/07/15 08:06:45;;;;;;;2.17;0.50;;;;;;;21.71;53.87;97569.28;8346530;28;20224;-68
2021/07/15 08:10:48;;;;;;;4.17;0.90;;;;;;;21.42;53.60;97564.97;8346939;28;20207;-69
2021/07/15 08:14:52;;;;;;;2.83;0.70;;;;;;;21.08;54.54;97576.06;8346831;28;20390;-68
2021/07/15 08:18:55;;;;;;;1.67;0.60;;;;;;;20.95;54.50;97576.38;8351865;28;20224;-69
2021/07/15 08:22:58;;;;;;;3.30;0.60;;;;;;;21.09;55.29;97573.28;8349741;28;20204;-69
2021/07/15 08:27:01;;;;;;;1.03;0.60;;;;;;;21.21;54.50;97576.56;8352875;28;20225;-69
2021/07/15 08:31:05;;;;;;;0.93;0.60;;;;;;;21.41;53.40;97579.09;8352931;28;20270;-69
2021/07/15 08:35:08;;;;;;;1.10;0.60;;;;;;;21.01;54.49;97577.59;8352800;28;20235;-69
2021/07/15 08:39:11;;;;;;;1.03;0.73;;;;;;;21.40;52.48;97574.81;8352460;28;20246;-69
2021/07/15 08:43:14;;;;;;;1.63;0.40;;;;;;;22.08;52.63;97571.78;8353840;28;20200;-70
2021/07/15 08:47:19;;;;;;;1.23;0.50;;;;;;;21.58;53.34;97572.28;8355429;28;20208;-72
2021/07/15 08:51:22;;;;;;;1.23;0.83;;;;;;;21.19;53.87;97569.75;8352100;28;20209;-71
2021/07/15 08:59:47;;;;;;;5.17;0.70;;;;;;;20.98;55.08;97570.81;8334301;28;20203;-72
2021/07/15 09:03:52;;;;;;;3.20;0.67;;;;;;;21.37;54.73;97572.47;8351463;28;20297;-71
2021/07/15 09:07:55;;;;;;;0.73;0.50;;;;;;;21.56;52.18;97563.69;8351404;28;20231;-72
2021/07/15 09:11:57;;;;;;;0.93;0.60;;;;;;;21.94;51.84;97562.59;8351470;28;20214;-71
2021/07/15 09:16:01;;;;;;;1.90;0.40;;;;;;;22.44;51.60;97558.63;8351165;28;20401;-72
2021/07/15 09:20:08;;;;;;;2.03;0.50;;;;;;;22.67;49.66;97568.69;8351202;28;20200;-71
2021/07/15 09:24:29;;;;;;;2.97;0.50;;;;;;;23.21;48.54;97570.22;8351172;28;20216;-72
2021/07/15 09:28:32;;;;;;;2.50;0.50;;;;;;;22.98;47.83;97563.78;8351094;28;20207;-72
2021/07/15 09:32:49;;;;;;;0.70;0.60;;;;;;;22.90;48.07;97575.13;8350734;28;20204;-71
2021/07/15 09:36:54;;;;;;;1.27;0.50;;;;;;;21.97;50.56;97564.09;8368474;28;20242;-71
2021/07/15 09:41:00;;;;;;;1.33;0.50;;;;;;;21.68;51.95;97573.03;8381397;28;20202;-73
2021/07/15 09:45:10;;;;;;;1.80;0.60;;;;;;;21.39;52.14;97578.44;8382882;28;20260;-72
2021/07/15 09:49:13;;;;;;;0.63;0.50;;;;;;;21.32;52.49;97582.59;8381138;28;20202;-71
2021/07/15 09:53:19;;;;;;;1.10;0.50;;;;;;;21.15;53.25;97592.94;8382566;28;20199;-71
2021/07/15 09:57:28;;;;;;;0.77;0.30;;;;;;;21.29;52.67;97597.72;8382395;28;20539;-71
2021/07/15 10:01:31;;;;;;;0.53;0.30;;;;;;;21.49;52.35;97589.78;8382771;28;20203;-75
2021/07/15 10:05:35;;;;;;;1.40;0.50;;;;;;;21.55;52.60;97581.31;8382813;28;20308;-74
2021/07/15 10:09:40;;;;;;;1.07;0.70;;;;;;;21.47;52.10;97583.81;8382738;28;20272;-75
2021/07/15 10:13:43;;;;;;;1.67;0.50;;;;;;;21.16;53.04;97594.59;8382457;28;20214;-75
2021/07/15 10:17:48;;;;;;;0.87;0.40;;;;;;;21.20;53.55;97603.03;8382312;28;20234;-76
2021/07/15 10:21:57;;;;;;;1.97;0.40;;;;;;;21.16;53.34;97597.22;8382241;28;20201;-74
2021/07/15 10:26:02;;;;;;;0.80;0.40;;;;;;;21.55;53.84;97598.88;8380789;28;20197;-75
2021/07/15 10:30:06;;;;;;;0.63;0.50;;;;;;;21.18;52.92;97600.53;8381160;28;20226;-74
2021/07/15 10:34:09;;;;;;;1.60;0.47;;;;;;;21.36;52.52;97597.16;8378010;28;20199;-74
2021/07/15 10:38:12;;;;;;;4.07;0.50;;;;;;;21.20;52.78;97606.50;8365282;28;20305;-74
2021/07/15 10:42:16;;;;;;;0.40;0.23;;;;;;;21.62;53.18;97597.34;8361089;28;20212;-74
2021/07/15 10:46:21;;;;;;;1.00;0.40;;;;;;;21.89;52.79;97601.75;8368454;28;20197;-74
2021/07/15 10:50:24;;;;;;;1.23;0.40;;;;;;;22.08;51.62;97602.63;8376757;28;20230;-74
2021/07/15 10:54:27;;;;;;;1.17;0.40;;;;;;;21.94;52.08;97599.50;8379894;28;20203;-74
2021/07/15 10:58:43;;;;;;;0.67;0.40;;;;;;;22.13;50.53;97595.09;8380589;28;20238;-75
2021/07/15 11:02:46;;;;;;;2.23;0.40;;;;;;;22.33;50.50;97585.25;8380176;28;20210;-75
2021/07/15 11:06:51;;;;;;;0.47;0.30;;;;;;;22.41;48.54;97594.06;8380130;28;20383;-72
2021/07/15 11:11:00;;;;;;;0.40;0.27;;;;;;;22.70;49.28;97592.16;8380721;28;20392;-72
2021/07/15 11:15:07;;;;;;;0.70;0.30;;;;;;;22.56;49.39;97597.00;8380256;28;20207;-72
2021/07/15 11:19:17;;;;;;;0.40;0.30;;;;;;;22.56;47.31;97604.06;8380662;28;20246;-72
2021/07/15 11:23:20;;;;;;;2.27;0.40;;;;;;;22.34;49.53;97608.84;8380477;28;20206;-71
2021/07/15 11:27:31;;;;;;;3.33;0.40;;;;;;;23.21;46.88;97604.56;8380151;28;20219;-73
2021/07/15 11:31:42;;;;;;;0.27;0.23;;;;;;;23.97;45.41;97612.63;8380210;28;20204;-72
2021/07/15 11:35:50;;;;;;;0.57;0.40;;;;;;;23.52;45.60;97621.72;8380289;28;20564;-72
2021/07/15 11:39:54;;;;;;;2.63;0.43;;;;;;;23.21;46.06;97617.75;8380050;28;20243;-72
2021/07/15 11:43:57;;;;;;;0.83;0.40;;;;;;;24.16;44.65;97622.97;8379972;28;20204;-71
2021/07/15 11:48:02;;;;;;;2.63;0.40;;;;;;;23.37;44.90;97624.13;8380052;28;20211;-71
2021/07/15 11:52:05;;;;;;;2.87;0.50;;;;;;;23.07;46.44;97623.59;8379845;28;20203;-73
2021/07/15 11:56:21;;;;;;;0.80;0.50;;;;;;;24.79;43.43;97631.31;8380096;28;20199;-72
2021/07/15 12:00:24;;;;;;;1.67;0.40;;;;;;;25.09;43.36;97632.44;8386452;28;20238;-72
2021/07/15 12:05:13;;;;;;;0.60;0.40;;;;;;;24.92;43.12;97631.63;8387200;28;20214;-72
2021/07/15 12:09:17;;;;;;;1.47;0.30;;;;;;;24.94;43.22;97629.66;8386087;28;20215;-72
2021/07/15 12:13:20;;;;;;;0.43;0.30;;;;;;;25.60;42.83;97632.16;8385731;28;20483;-71
2021/07/15 12:17:23;;;;;;;0.30;0.30;;;;;;;24.94;43.97;97621.69;8385343;28;20379;-71
2021/07/15 12:21:27;;;;;;;0.47;0.40;;;;;;;24.18;46.03;97634.19;8385070;28;20194;-70
2021/07/15 12:25:31;;;;;;;0.30;0.30;;;;;;;24.08;46.62;97624.75;8384907;28;20399;-71
2021/07/15 12:29:37;;;;;;;2.27;0.40;;;;;;;23.64;47.80;97624.91;8382974;28;20208;-71
2021/07/15 12:33:44;;;;;;;0.77;0.37;;;;;;;23.45;48.11;97633.91;8385194;28;20195;-70
2021/07/15 12:37:48;;;;;;;3.67;0.50;;;;;;;23.19;48.98;97632.94;8381154;28;20434;-71
2021/07/15 12:41:54;;;;;;;1.87;0.30;;;;;;;22.95;49.34;97628.28;8352313;28;20382;-70
2021/07/15 12:46:08;;;;;;;1.90;0.40;;;;;;;23.25;48.87;97635.94;8352391;28;20278;-70
2021/07/15 12:50:22;;;;;;;2.20;0.50;;;;;;;23.20;48.91;97634.59;8352576;28;20219;-71
2021/07/15 12:54:30;;;;;;;0.87;0.50;;;;;;;23.55;49.20;97646.03;8361743;28;20585;-72
2021/07/15 12:58:34;;;;;;;3.20;0.70;;;;;;;23.31;48.56;97648.53;8385032;28;20220;-71
2021/07/15 13:02:38;;;;;;;2.43;0.60;;;;;;;23.70;48.55;97645.41;8386095;28;20223;-72
2021/07/15 13:06:42;;;;;;;1.53;0.60;;;;;;;23.93;47.76;97645.69;8385219;28;20504;-71
2021/07/15 13:15:32;;;;;;;1.23;0.60;;;;;;;23.96;47.44;97650.66;8382866;28;20195;-72
2021/07/15 13:19:37;;;;;;;1.00;0.40;;;;;;;23.64;47.06;97656.63;8371385;28;20246;-74
2021/07/15 13:24:00;;;;;;;1.20;0.50;;;;;;;23.54;46.74;97656.75;8376258;28;20207;-73
2021/07/15 13:28:08;;;;;;;0.70;0.40;;;;;;;23.96;46.83;97653.31;8383889;28;20516;-73
2021/07/15 13:32:16;;;;;;;4.10;0.57;;;;;;;23.50;47.47;97650.94;8384898;28;20203;-73
2021/07/15 13:36:18;;;;;;;1.03;0.40;;;;;;;23.49;46.94;97654.56;8384787;28;20243;-73
2021/07/15 13:40:23;;;;;;;1.20;0.30;;;;;;;23.48;46.40;97655.56;8383755;28;20231;-73
2021/07/15 13:44:27;;;;;;;1.63;0.40;;;;;;;23.45;46.26;97653.22;8383817;28;20297;-73
2021/07/15 13:48:30;;;;;;;1.23;0.50;;;;;;;23.24;46.41;97656.25;8383816;28;20298;-72
2021/07/15 13:52:35;;;;;;;0.60;0.30;;;;;;;23.81;46.23;97661.03;8383847;28;20204;-74
2021/07/15 13:56:38;;;;;;;0.73;0.40;;;;;;;23.95;45.70;97651.63;8360058;28;20363;-73
2021/07/15 14:00:47;;;;;;;0.50;0.30;;;;;;;24.14;44.58;97643.47;8372751;28;20299;-72
2021/07/15 14:04:51;;;;;;;1.73;0.40;;;;;;;24.28;43.83;97646.47;8372796;28;20307;-73
2021/07/15 14:08:59;;;;;;;0.30;0.30;;;;;;;24.44;44.97;97646.47;8361844;28;20210;-72
2021/07/15 14:13:02;;;;;;;0.20;0.20;;;;;;;24.16;44.21;97648.56;8361206;28;20398;-73
2021/07/15 14:17:06;;;;;;;0.90;0.37;;;;;;;24.37;44.35;97654.25;8367554;28;20346;-72
2021/07/15 14:21:09;;;;;;;0.70;0.30;;;;;;;25.14;42.07;97659.25;8382422;28;20228;-73
2021/07/15 14:25:12;;;;;;;3.70;0.40;;;;;;;25.77;40.28;97661.28;8382633;28;20205;-72
2021/07/15 14:29:15;;;;;;;0.53;0.20;;;;;;;24.58;41.35;97653.00;8382480;28;20203;-72
2021/07/15 14:33:19;;;;;;;1.47;0.20;;;;;;;24.44;42.27;97651.75;8382407;28;20206;-73
2021/07/15 14:37:22;;;;;;;0.47;0.20;;;;;;;24.06;43.61;97664.56;8382225;28;20276;-72
2021/07/15 14:41:25;;;;;;;1.63;0.50;;;;;;;23.94;44.88;97656.13;8382283;28;20228;-71
2021/07/15 14:45:28;;;;;;;0.40;0.30;;;;;;;23.95;45.11;97659.56;8381867;28;20380;-73
2021/07/15 14:49:32;;;;;;;0.90;0.40;;;;;;;23.64;44.81;97656.63;8381879;28;20210;-74
2021/07/15 14:53:35;;;;;;;1.03;0.43;;;;;;;23.39;45.69;97653.84;8381833;28;20207;-74
2021/07/15 14:57:38;;;;;;;3.73;0.40;;;;;;;23.24;45.62;97661.53;8381546;28;20207;-75
2021/07/15 15:01:41;;;;;;;0.60;0.50;;;;;;;23.05;47.46;97653.81;8381398;28;20231;-74
2021/07/15 15:05:46;;;;;;;0.67;0.40;;;;;;;23.18;47.63;97655.03;8379219;28;20544;-74
2021/07/15 15:09:49;;;;;;;2.30;0.67;;;;;;;23.15;47.18;97654.53;8381807;28;20207;-76
2021/07/15 15:13:52;;;;;;;0.80;0.30;;;;;;;22.82;47.45;97667.47;8381311;28;20207;-75
2021/07/15 15:17:54;;;;;;;1.37;0.50;;;;;;;22.87;47.97;97662.56;8381300;28;20226;-76
2021/07/15 15:21:59;;;;;;;2.13;0.30;;;;;;;22.91;47.50;97655.16;8380633;28;20227;-74
2021/07/15 15:26:03;;;;;;;0.53;0.37;;;;;;;23.06;47.64;97660.75;8377463;28;20412;-76
2021/07/15 15:30:07;;;;;;;0.70;0.40;;;;;;;23.05;46.85;97667.00;8380629;28;20207;-73
2021/07/15 15:34:10;;;;;;;2.00;0.40;;;;;;;23.08;45.59;97667.53;8380985;28;20215;-73
2021/07/15 15:38:15;;;;;;;0.77;0.40;;;;;;;23.22;46.55;97666.94;8373149;28;20203;-73
2021/07/15 15:42:17;;;;;;;1.30;0.50;;;;;;;22.90;46.93;97670.16;8376142;28;20407;-74
2021/07/15 15:46:20;;;;;;;0.80;0.40;;;;;;;23.14;46.14;97666.09;8380339;28;20202;-73
2021/07/15 15:50:25;;;;;;;2.10;0.50;;;;;;;23.22;46.86;97660.84;8378638;28;20203;-74
2021/07/15 15:54:29;;;;;;;0.87;0.40;;;;;;;23.36;46.28;97659.44;8379746;28;20364;-73
2021/07/15 15:58:33;;;;;;;0.93;0.37;;;;;;;23.80;46.00;97662.03;8379874;28;20200;-74
2021/07/15 16:02:35;;;;;;;0.67;0.40;;;;;;;23.62;46.06;97662.06;8379894;28;20216;-73
2021/07/15 16:06:41;;;;;;;1.70;0.30;;;;;;;23.42;46.96;97651.72;8379850;28;20258;-73
2021/07/15 16:10:45;;;;;;;2.10;0.80;;;;;;;23.29;47.44;97653.97;8376569;28;20218;-73
2021/07/15 16:14:50;;;;;;;1.50;0.50;;;;;;;23.07;47.24;97654.47;8378094;28;20192;-75
2021/07/15 16:18:54;;;;;;;2.50;0.40;;;;;;;23.22;46.68;97651.09;8378026;28;20231;-75
2021/07/15 16:22:58;;;;;;;2.80;0.70;;;;;;;23.36;46.48;97648.88;8379794;28;20207;-75
2021/07/15 16:27:02;;;;;;;1.07;0.37;;;;;;;23.56;46.24;97645.03;8379543;28;20195;-75
2021/07/15 16:31:05;;;;;;;0.60;0.50;;;;;;;23.66;45.42;97642.25;8379816;28;20196;-75
2021/07/15 16:35:09;;;;;;;1.07;0.40;;;;;;;23.67;46.51;97640.47;8379653;28;20220;-73
2021/07/15 16:39:12;;;;;;;1.17;0.30;;;;;;;23.54;45.29;97636.41;8379179;28;20226;-74
2021/07/15 16:43:16;;;;;;;0.53;0.37;;;;;;;23.53;45.65;97639.22;8381330;28;20195;-73
2021/07/15 16:47:19;;;;;;;0.70;0.40;;;;;;;23.39;46.27;97638.81;8385082;28;20479;-73
2021/07/15 16:51:22;;;;;;;0.63;0.40;;;;;;;23.72;45.82;97641.63;8385361;28;20224;-73
2021/07/15 16:55:25;;;;;;;2.90;0.70;;;;;;;23.58;45.89;97640.41;8384783;28;20267;-73
2021/07/15 16:59:29;;;;;;;2.00;0.60;;;;;;;23.64;45.64;97644.22;8384963;28;20220;-73
2021/07/15 17:03:32;;;;;;;0.40;0.30;;;;;;;23.81;46.51;97643.34;8384961;28;20199;-72
2021/07/15 17:07:35;;;;;;;1.37;0.40;;;;;;;23.64;47.89;97646.88;8384634;28;20272;-71
2021/07/15 17:11:38;;;;;;;9.30;1.43;;;;;;;23.70;48.98;97646.22;8382482;28;20196;-69
2021/07/15 17:15:42;;;;;;;3.87;0.70;;;;;;;23.87;49.33;97643.69;8384634;28;20389;-69
2021/07/15 17:19:45;;;;;;;2.73;0.80;;;;;;;23.85;48.16;97648.31;8384581;28;20220;-69
2021/07/15 17:23:48;;;;;;;2.03;0.40;;;;;;;23.75;48.92;97648.41;8384487;28;20199;-70
2021/07/15 17:27:51;;;;;;;2.13;0.50;;;;;;;23.17;48.26;97642.84;8384342;28;20375;-69
2021/07/15 17:31:55;;;;;;;2.23;0.40;;;;;;;23.19;47.49;97646.16;8382340;28;20199;-69
2021/07/15 17:35:59;;;;;;;0.73;0.53;;;;;;;23.26;47.56;97648.97;8383230;28;20243;-69
2021/07/15 17:40:02;;;;;;;0.80;0.50;;;;;;;23.34;46.94;97658.78;8383888;28;20226;-68
2021/07/15 17:44:05;;;;;;;2.47;1.00;;;;;;;23.00;49.43;97664.81;8384042;28;20227;-70
2021/07/15 17:48:09;;;;;;;1.80;0.77;;;;;;;22.59;51.99;97675.03;8381665;28;20195;-68
2021/07/15 17:52:12;;;;;;;1.70;0.70;;;;;;;22.61;52.08;97678.34;8383341;28;20200;-69
2021/07/15 17:56:14;;;;;;;2.33;0.70;;;;;;;22.57;52.12;97682.25;8383877;28;20206;-68
2021/07/15 18:00:19;;;;;;;1.20;0.80;;;;;;;22.39;52.62;97685.72;8383811;28;20226;-68
2021/07/15 18:04:23;;;;;;;3.13;0.70;;;;;;;22.19;53.57;97692.06;8383418;28;20210;-68
2021/07/15 18:08:26;;;;;;;2.63;0.70;;;;;;;21.94;54.90;97707.59;8383659;28;20215;-68
2021/07/15 18:12:29;;;;;;;3.43;1.07;;;;;;;21.89;54.38;97698.47;8383714;28;20200;-68
2021/07/15 18:16:32;;;;;;;1.10;0.80;;;;;;;22.04;54.45;97695.19;8383577;28;20416;-69
2021/07/15 18:20:37;;;;;;;1.30;1.00;;;;;;;21.88;54.50;97695.00;8383399;28;20247;-68
2021/07/15 18:24:39;;;;;;;1.43;0.80;;;;;;;22.19;53.92;97695.53;8383517;28;20196;-68
2021/07/15 18:28:42;;;;;;;1.77;0.80;;;;;;;22.21;53.98;97698.03;8383166;28;20202;-72
2021/07/15 18:32:45;;;;;;;0.77;0.70;;;;;;;22.23;53.34;97717.97;8382945;28;20196;-73
2021/07/15 18:36:49;;;;;;;1.13;0.80;;;;;;;22.25;54.83;97718.69;8374194;28;20238;-73
2021/07/15 18:40:52;;;;;;;1.70;0.80;;;;;;;22.20;54.88;97720.94;8382484;28;20245;-72
2021/07/15 18:44:55;;;;;;;1.10;0.67;;;;;;;22.18;54.82;97728.16;8382485;28;20203;-72
2021/07/15 18:48:58;;;;;;;2.27;0.63;;;;;;;22.19;55.11;97731.63;8382546;28;20201;-72
2021/07/15 18:53:02;;;;;;;1.70;0.80;;;;;;;22.02;54.06;97741.13;8382387;28;20528;-72
2021/07/15 18:57:05;;;;;;;1.00;0.83;;;;;;;22.03;53.64;97746.28;8382563;28;20375;-74
2021/07/15 19:01:08;;;;;;;1.03;0.87;;;;;;;21.97;54.89;97743.38;8382405;28;20219;-72
2021/07/15 19:05:11;;;;;;;1.47;0.90;;;;;;;21.99;55.25;97747.53;8381581;28;20482;-82
2021/07/15 19:09:15;;;;;;;1.60;0.77;;;;;;;21.92;55.13;97757.00;8365944;28;20200;-73
2021/07/15 19:13:18;;;;;;;1.00;0.70;;;;;;;21.95;55.46;97767.25;8382080;28;20520;-72
2021/07/15 19:17:21;;;;;;;3.10;0.80;;;;;;;21.96;55.58;97768.91;8381853;28;20192;-73
2021/07/15 19:21:24;;;;;;;1.20;1.00;;;;;;;21.96;55.76;97783.91;8381904;28;20226;-73